sensor_id;sensor_type;location;lat;lon;timestamp;P1;durP1;ratioP1;P2;durP2;ratioP2
3795;SDS011;1913;50.660;7.834;2022-07-25T00:02:19;7.90;;;6.27;;
3795;SDS011;1913;50.660;7.834;2022-07-25T00:04:45;7.50;;;6.50;;
3795;SDS011;1913;50.660;7.834;2022-07-25T00:07:10;7.20;;;5.77;;
3795;SDS011;1913;50.660;7.834;2022-07-25T00:09:36;9.47;;;6.83;;
3795;SDS011;1913;50.660;7.834;2022-07-25T00:12:01;6.20;;;5.60;;
3795;SDS011;1913;50.660;7.834;2022-07-25T00:14:27;8.47;;;6.63;;
3795;SDS011;1913;50.660;7.834;2022-07-25T00:16:52;9.13;;;6.50;;
3795;SDS011;1913;50.660;7.834;2022-07-25T00:19:18;6.27;;;5.67;;
3795;SDS011;1913;50.660;7.834;2022-07-25T00:21:43;10.00;;;6.03;;
3795;SDS011;1913;50.660;7.834;2022-07-25T00:24:09;8.67;;;6.37;;
3795;SDS011;1913;50.660;7.834;2022-07-25T00:26:35;7.07;;;5.70;;
3795;SDS011;1913;50.660;7.834;2022-07-25T00:29:00;7.80;;;6.53;;
3795;SDS011;1913;50.660;7.834;2022-07-25T00:31:34;6.67;;;5.97;;
3795;SDS011;1913;50.660;7.834;2022-07-25T00:34:00;8.67;;;6.40;;
3795;SDS011;1913;50.660;7.834;2022-07-25T00:36:25;8.83;;;6.60;;
3795;SDS011;1913;50.660;7.834;2022-07-25T00:38:51;6.97;;;6.27;;
3795;SDS011;1913;50.660;7.834;2022-07-25T00:41:17;8.17;;;6.47;;
3795;SDS011;1913;50.660;7.834;2022-07-25T00:43:43;6.93;;;6.23;;
3795;SDS011;1913;50.660;7.834;2022-07-25T00:46:13;7.43;;;6.20;;
3795;SDS011;1913;50.660;7.834;2022-07-25T00:48:39;6.97;;;6.00;;
3795;SDS011;1913;50.660;7.834;2022-07-25T00:51:05;9.13;;;6.73;;
3795;SDS011;1913;50.660;7.834;2022-07-25T00:53:31;6.20;;;5.50;;
3795;SDS011;1913;50.660;7.834;2022-07-25T00:55:58;9.60;;;6.40;;
3795;SDS011;1913;50.660;7.834;2022-07-25T00:58:23;9.70;;;5.87;;
3795;SDS011;1913;50.660;7.834;2022-07-25T01:00:49;7.73;;;6.50;;
3795;SDS011;1913;50.660;7.834;2022-07-25T01:03:14;7.37;;;6.03;;
3795;SDS011;1913;50.660;7.834;2022-07-25T01:05:40;13.20;;;6.70;;
3795;SDS011;1913;50.660;7.834;2022-07-25T01:08:06;7.10;;;5.63;;
3795;SDS011;1913;50.660;7.834;2022-07-25T01:10:33;6.97;;;5.80;;
3795;SDS011;1913;50.660;7.834;2022-07-25T01:12:59;7.10;;;6.37;;
3795;SDS011;1913;50.660;7.834;2022-07-25T01:15:24;7.63;;;6.77;;
3795;SDS011;1913;50.660;7.834;2022-07-25T01:17:50;7.63;;;6.40;;
3795;SDS011;1913;50.660;7.834;2022-07-25T01:20:17;7.60;;;6.70;;
3795;SDS011;1913;50.660;7.834;2022-07-25T01:22:46;6.50;;;5.90;;
3795;SDS011;1913;50.660;7.834;2022-07-25T01:25:12;7.63;;;6.30;;
3795;SDS011;1913;50.660;7.834;2022-07-25T01:27:39;7.23;;;6.10;;
3795;SDS011;1913;50.660;7.834;2022-07-25T01:30:06;6.23;;;5.57;;
3795;SDS011;1913;50.660;7.834;2022-07-25T01:32:33;8.30;;;5.90;;
3795;SDS011;1913;50.660;7.834;2022-07-25T01:34:59;9.63;;;6.47;;
3795;SDS011;1913;50.660;7.834;2022-07-25T01:37:24;10.50;;;6.23;;
3795;SDS011;1913;50.660;7.834;2022-07-25T01:39:50;7.20;;;6.40;;
3795;SDS011;1913;50.660;7.834;2022-07-25T01:42:15;7.63;;;6.60;;
3795;SDS011;1913;50.660;7.834;2022-07-25T01:44:41;8.80;;;6.30;;
3795;SDS011;1913;50.660;7.834;2022-07-25T01:47:06;7.33;;;5.57;;
3795;SDS011;1913;50.660;7.834;2022-07-25T01:49:32;7.70;;;6.10;;
3795;SDS011;1913;50.660;7.834;2022-07-25T01:51:57;8.00;;;6.17;;
3795;SDS011;1913;50.660;7.834;2022-07-25T01:54:22;7.83;;;6.30;;
3795;SDS011;1913;50.660;7.834;2022-07-25T01:56:48;7.33;;;6.47;;
3795;SDS011;1913;50.660;7.834;2022-07-25T01:59:13;6.80;;;6.10;;
3795;SDS011;1913;50.660;7.834;2022-07-25T02:01:39;7.43;;;6.20;;
3795;SDS011;1913;50.660;7.834;2022-07-25T02:04:05;8.57;;;6.10;;
3795;SDS011;1913;50.660;7.834;2022-07-25T02:06:30;7.53;;;5.57;;
3795;SDS011;1913;50.660;7.834;2022-07-25T02:08:58;10.47;;;6.00;;
3795;SDS011;1913;50.660;7.834;2022-07-25T02:11:23;6.00;;;5.50;;
3795;SDS011;1913;50.660;7.834;2022-07-25T02:13:49;8.37;;;6.63;;
3795;SDS011;1913;50.660;7.834;2022-07-25T02:16:14;7.00;;;6.30;;
3795;SDS011;1913;50.660;7.834;2022-07-25T02:18:39;8.70;;;6.30;;
3795;SDS011;1913;50.660;7.834;2022-07-25T02:21:05;8.10;;;6.30;;
3795;SDS011;1913;50.660;7.834;2022-07-25T02:23:32;8.97;;;6.53;;
3795;SDS011;1913;50.660;7.834;2022-07-25T02:25:58;8.43;;;6.67;;
3795;SDS011;1913;50.660;7.834;2022-07-25T02:28:23;6.57;;;5.87;;
3795;SDS011;1913;50.660;7.834;2022-07-25T02:30:49;6.57;;;5.93;;
3795;SDS011;1913;50.660;7.834;2022-07-25T02:33:14;7.50;;;6.70;;
3795;SDS011;1913;50.660;7.834;2022-07-25T02:35:40;7.30;;;6.60;;
3795;SDS011;1913;50.660;7.834;2022-07-25T02:38:05;7.90;;;5.93;;
3795;SDS011;1913;50.660;7.834;2022-07-25T02:40:31;6.60;;;5.60;;
3795;SDS011;1913;50.660;7.834;2022-07-25T02:42:57;7.00;;;6.30;;
3795;SDS011;1913;50.660;7.834;2022-07-25T02:45:22;7.70;;;6.00;;
3795;SDS011;1913;50.660;7.834;2022-07-25T02:47:48;6.90;;;6.20;;
3795;SDS011;1913;50.660;7.834;2022-07-25T02:50:13;9.57;;;6.47;;
3795;SDS011;1913;50.660;7.834;2022-07-25T02:52:38;6.80;;;6.13;;
3795;SDS011;1913;50.660;7.834;2022-07-25T02:55:04;6.83;;;6.13;;
3795;SDS011;1913;50.660;7.834;2022-07-25T02:57:30;8.70;;;6.00;;
3795;SDS011;1913;50.660;7.834;2022-07-25T02:59:55;7.37;;;6.60;;
3795;SDS011;1913;50.660;7.834;2022-07-25T03:02:21;8.67;;;6.50;;
3795;SDS011;1913;50.660;7.834;2022-07-25T03:04:46;8.00;;;6.53;;
3795;SDS011;1913;50.660;7.834;2022-07-25T03:07:12;11.60;;;6.07;;
3795;SDS011;1913;50.660;7.834;2022-07-25T03:09:37;6.53;;;5.53;;
3795;SDS011;1913;50.660;7.834;2022-07-25T03:12:03;8.00;;;6.90;;
3795;SDS011;1913;50.660;7.834;2022-07-25T03:14:28;9.47;;;6.37;;
3795;SDS011;1913;50.660;7.834;2022-07-25T03:16:54;6.70;;;6.00;;
3795;SDS011;1913;50.660;7.834;2022-07-25T03:19:19;7.07;;;6.23;;
3795;SDS011;1913;50.660;7.834;2022-07-25T03:21:45;6.23;;;5.63;;
3795;SDS011;1913;50.660;7.834;2022-07-25T03:24:11;11.90;;;6.27;;
3795;SDS011;1913;50.660;7.834;2022-07-25T03:26:36;9.80;;;6.53;;
3795;SDS011;1913;50.660;7.834;2022-07-25T03:29:02;6.87;;;6.23;;
3795;SDS011;1913;50.660;7.834;2022-07-25T03:31:28;6.77;;;5.83;;
3795;SDS011;1913;50.660;7.834;2022-07-25T03:33:53;7.10;;;6.40;;
3795;SDS011;1913;50.660;7.834;2022-07-25T03:36:19;6.37;;;5.70;;
3795;SDS011;1913;50.660;7.834;2022-07-25T03:38:44;11.30;;;6.67;;
3795;SDS011;1913;50.660;7.834;2022-07-25T03:41:10;7.70;;;6.20;;
3795;SDS011;1913;50.660;7.834;2022-07-25T03:43:36;7.50;;;5.80;;
3795;SDS011;1913;50.660;7.834;2022-07-25T03:46:02;7.17;;;5.83;;
3795;SDS011;1913;50.660;7.834;2022-07-25T03:48:27;6.30;;;5.70;;
3795;SDS011;1913;50.660;7.834;2022-07-25T03:50:54;8.13;;;6.80;;
3795;SDS011;1913;50.660;7.834;2022-07-25T03:53:20;8.03;;;6.57;;
3795;SDS011;1913;50.660;7.834;2022-07-25T03:55:46;8.07;;;6.60;;
3795;SDS011;1913;50.660;7.834;2022-07-25T03:58:11;6.93;;;5.97;;
3795;SDS011;1913;50.660;7.834;2022-07-25T04:00:36;6.90;;;6.07;;
3795;SDS011;1913;50.660;7.834;2022-07-25T04:03:03;6.73;;;5.97;;
3795;SDS011;1913;50.660;7.834;2022-07-25T04:05:28;10.00;;;6.33;;
3795;SDS011;1913;50.660;7.834;2022-07-25T04:07:54;6.67;;;6.07;;
3795;SDS011;1913;50.660;7.834;2022-07-25T04:10:19;7.63;;;6.83;;
3795;SDS011;1913;50.660;7.834;2022-07-25T04:12:45;6.83;;;6.13;;
3795;SDS011;1913;50.660;7.834;2022-07-25T04:15:12;6.87;;;6.13;;
3795;SDS011;1913;50.660;7.834;2022-07-25T04:17:38;7.13;;;6.30;;
3795;SDS011;1913;50.660;7.834;2022-07-25T04:20:04;6.70;;;5.93;;
3795;SDS011;1913;50.660;7.834;2022-07-25T04:22:31;7.30;;;6.20;;
3795;SDS011;1913;50.660;7.834;2022-07-25T04:24:57;7.67;;;5.80;;
3795;SDS011;1913;50.660;7.834;2022-07-25T04:27:22;6.57;;;5.87;;
3795;SDS011;1913;50.660;7.834;2022-07-25T04:29:48;7.07;;;5.80;;
3795;SDS011;1913;50.660;7.834;2022-07-25T04:32:13;7.47;;;5.90;;
3795;SDS011;1913;50.660;7.834;2022-07-25T04:34:41;9.33;;;6.40;;
3795;SDS011;1913;50.660;7.834;2022-07-25T04:37:07;8.47;;;6.57;;
3795;SDS011;1913;50.660;7.834;2022-07-25T04:39:33;11.37;;;6.70;;
3795;SDS011;1913;50.660;7.834;2022-07-25T04:41:58;6.97;;;5.80;;
3795;SDS011;1913;50.660;7.834;2022-07-25T04:44:25;7.87;;;6.00;;
3795;SDS011;1913;50.660;7.834;2022-07-25T04:46:51;6.90;;;6.10;;
3795;SDS011;1913;50.660;7.834;2022-07-25T04:49:16;7.33;;;6.60;;
3795;SDS011;1913;50.660;7.834;2022-07-25T04:51:41;7.03;;;6.37;;
3795;SDS011;1913;50.660;7.834;2022-07-25T04:54:11;9.57;;;6.80;;
3795;SDS011;1913;50.660;7.834;2022-07-25T04:57:18;8.70;;;6.97;;
3795;SDS011;1913;50.660;7.834;2022-07-25T04:59:44;6.87;;;6.17;;
3795;SDS011;1913;50.660;7.834;2022-07-25T05:02:14;6.30;;;5.70;;
3795;SDS011;1913;50.660;7.834;2022-07-25T05:04:40;6.83;;;6.07;;
3795;SDS011;1913;50.660;7.834;2022-07-25T05:08:04;6.93;;;6.30;;
3795;SDS011;1913;50.660;7.834;2022-07-25T05:10:30;7.83;;;6.40;;
3795;SDS011;1913;50.660;7.834;2022-07-25T05:12:57;7.37;;;6.67;;
3795;SDS011;1913;50.660;7.834;2022-07-25T05:15:22;6.90;;;6.20;;
3795;SDS011;1913;50.660;7.834;2022-07-25T05:18:42;9.73;;;6.60;;
3795;SDS011;1913;50.660;7.834;2022-07-25T05:22:05;7.10;;;6.50;;
3795;SDS011;1913;50.660;7.834;2022-07-25T05:25:29;7.57;;;6.87;;
3795;SDS011;1913;50.660;7.834;2022-07-25T05:28:42;7.17;;;6.57;;
3795;SDS011;1913;50.660;7.834;2022-07-25T05:31:47;7.13;;;6.40;;
3795;SDS011;1913;50.660;7.834;2022-07-25T05:35:05;7.70;;;6.50;;
3795;SDS011;1913;50.660;7.834;2022-07-25T05:37:34;7.07;;;5.97;;
3795;SDS011;1913;50.660;7.834;2022-07-25T05:40:17;6.60;;;6.00;;
3795;SDS011;1913;50.660;7.834;2022-07-25T05:43:25;7.60;;;6.80;;
3795;SDS011;1913;50.660;7.834;2022-07-25T05:45:59;7.10;;;6.40;;
3795;SDS011;1913;50.660;7.834;2022-07-25T05:48:26;7.27;;;6.27;;
3795;SDS011;1913;50.660;7.834;2022-07-25T05:50:53;8.73;;;6.40;;
3795;SDS011;1913;50.660;7.834;2022-07-25T05:53:19;6.73;;;6.13;;
3795;SDS011;1913;50.660;7.834;2022-07-25T05:55:44;6.50;;;5.90;;
3795;SDS011;1913;50.660;7.834;2022-07-25T05:58:10;7.10;;;6.40;;
3795;SDS011;1913;50.660;7.834;2022-07-25T06:00:36;6.80;;;5.47;;
3795;SDS011;1913;50.660;7.834;2022-07-25T06:03:03;6.47;;;5.87;;
3795;SDS011;1913;50.660;7.834;2022-07-25T06:05:58;7.60;;;6.33;;
3795;SDS011;1913;50.660;7.834;2022-07-25T06:09:21;8.70;;;6.43;;
3795;SDS011;1913;50.660;7.834;2022-07-25T06:12:39;6.10;;;5.60;;
3795;SDS011;1913;50.660;7.834;2022-07-25T06:15:04;9.40;;;6.83;;
3795;SDS011;1913;50.660;7.834;2022-07-25T06:20:56;6.40;;;5.77;;
3795;SDS011;1913;50.660;7.834;2022-07-25T06:24:21;6.60;;;5.33;;
3795;SDS011;1913;50.660;7.834;2022-07-25T06:27:45;7.20;;;6.50;;
3795;SDS011;1913;50.660;7.834;2022-07-25T06:31:09;7.10;;;6.27;;
3795;SDS011;1913;50.660;7.834;2022-07-25T06:34:34;7.40;;;6.70;;
3795;SDS011;1913;50.660;7.834;2022-07-25T06:37:57;6.93;;;6.27;;
3795;SDS011;1913;50.660;7.834;2022-07-25T06:41:21;6.57;;;5.97;;
3795;SDS011;1913;50.660;7.834;2022-07-25T06:44:45;6.67;;;5.90;;
3795;SDS011;1913;50.660;7.834;2022-07-25T06:48:12;7.27;;;6.50;;
3795;SDS011;1913;50.660;7.834;2022-07-25T06:51:36;6.97;;;5.80;;
3795;SDS011;1913;50.660;7.834;2022-07-25T06:55:01;7.30;;;6.17;;
3795;SDS011;1913;50.660;7.834;2022-07-25T06:58:26;6.93;;;6.33;;
3795;SDS011;1913;50.660;7.834;2022-07-25T07:01:50;6.53;;;5.93;;
3795;SDS011;1913;50.660;7.834;2022-07-25T07:05:17;7.57;;;6.60;;
3795;SDS011;1913;50.660;7.834;2022-07-25T07:08:41;6.17;;;5.67;;
3795;SDS011;1913;50.660;7.834;2022-07-25T07:12:05;7.30;;;6.30;;
3795;SDS011;1913;50.660;7.834;2022-07-25T07:15:30;7.07;;;6.40;;
3795;SDS011;1913;50.660;7.834;2022-07-25T07:18:58;6.30;;;5.70;;
3795;SDS011;1913;50.660;7.834;2022-07-25T07:22:22;11.40;;;7.30;;
3795;SDS011;1913;50.660;7.834;2022-07-25T07:25:35;9.63;;;5.87;;
3795;SDS011;1913;50.660;7.834;2022-07-25T07:28:09;6.93;;;6.33;;
3795;SDS011;1913;50.660;7.834;2022-07-25T07:30:40;8.30;;;5.67;;
3795;SDS011;1913;50.660;7.834;2022-07-25T07:33:06;6.67;;;6.07;;
3795;SDS011;1913;50.660;7.834;2022-07-25T07:36:30;6.80;;;6.10;;
3795;SDS011;1913;50.660;7.834;2022-07-25T07:39:49;7.93;;;6.50;;
3795;SDS011;1913;50.660;7.834;2022-07-25T07:43:13;6.87;;;6.27;;
3795;SDS011;1913;50.660;7.834;2022-07-25T07:46:37;8.20;;;6.37;;
3795;SDS011;1913;50.660;7.834;2022-07-25T07:50:01;10.30;;;6.40;;
3795;SDS011;1913;50.660;7.834;2022-07-25T07:53:01;7.33;;;6.10;;
3795;SDS011;1913;50.660;7.834;2022-07-25T07:56:44;7.53;;;5.80;;
3795;SDS011;1913;50.660;7.834;2022-07-25T07:59:40;6.70;;;6.10;;
3795;SDS011;1913;50.660;7.834;2022-07-25T08:02:46;6.83;;;5.63;;
3795;SDS011;1913;50.660;7.834;2022-07-25T08:05:19;6.67;;;6.07;;
3795;SDS011;1913;50.660;7.834;2022-07-25T08:07:46;9.47;;;6.20;;
3795;SDS011;1913;50.660;7.834;2022-07-25T08:10:11;10.10;;;6.00;;
3795;SDS011;1913;50.660;7.834;2022-07-25T08:12:40;8.43;;;6.00;;
3795;SDS011;1913;50.660;7.834;2022-07-25T08:15:07;12.00;;;6.00;;
3795;SDS011;1913;50.660;7.834;2022-07-25T08:17:33;10.10;;;6.13;;
3795;SDS011;1913;50.660;7.834;2022-07-25T08:19:58;6.63;;;5.93;;
3795;SDS011;1913;50.660;7.834;2022-07-25T08:22:24;7.40;;;6.27;;
3795;SDS011;1913;50.660;7.834;2022-07-25T08:24:59;8.47;;;7.00;;
3795;SDS011;1913;50.660;7.834;2022-07-25T08:27:25;7.40;;;6.67;;
3795;SDS011;1913;50.660;7.834;2022-07-25T08:29:50;7.43;;;6.00;;
3795;SDS011;1913;50.660;7.834;2022-07-25T08:32:16;7.17;;;6.47;;
3795;SDS011;1913;50.660;7.834;2022-07-25T08:34:41;9.23;;;6.60;;
3795;SDS011;1913;50.660;7.834;2022-07-25T08:37:06;6.50;;;5.90;;
3795;SDS011;1913;50.660;7.834;2022-07-25T08:39:32;8.03;;;6.03;;
3795;SDS011;1913;50.660;7.834;2022-07-25T08:41:57;7.33;;;6.50;;
3795;SDS011;1913;50.660;7.834;2022-07-25T08:44:27;7.57;;;6.40;;
3795;SDS011;1913;50.660;7.834;2022-07-25T08:46:58;6.70;;;6.10;;
3795;SDS011;1913;50.660;7.834;2022-07-25T08:49:25;8.13;;;6.33;;
3795;SDS011;1913;50.660;7.834;2022-07-25T08:51:54;6.70;;;6.10;;
3795;SDS011;1913;50.660;7.834;2022-07-25T08:54:22;6.37;;;5.70;;
3795;SDS011;1913;50.660;7.834;2022-07-25T08:56:49;6.47;;;5.97;;
3795;SDS011;1913;50.660;7.834;2022-07-25T08:59:15;6.87;;;6.17;;
3795;SDS011;1913;50.660;7.834;2022-07-25T09:01:40;7.73;;;6.10;;
3795;SDS011;1913;50.660;7.834;2022-07-25T09:04:06;8.00;;;6.30;;
3795;SDS011;1913;50.660;7.834;2022-07-25T09:06:34;7.03;;;6.00;;
3795;SDS011;1913;50.660;7.834;2022-07-25T09:09:00;8.87;;;5.60;;
3795;SDS011;1913;50.660;7.834;2022-07-25T09:11:30;8.77;;;5.80;;
3795;SDS011;1913;50.660;7.834;2022-07-25T09:14:05;5.93;;;5.33;;
3795;SDS011;1913;50.660;7.834;2022-07-25T09:16:32;6.50;;;5.90;;
3795;SDS011;1913;50.660;7.834;2022-07-25T09:19:33;6.87;;;5.87;;
3795;SDS011;1913;50.660;7.834;2022-07-25T09:21:58;7.60;;;5.93;;
3795;SDS011;1913;50.660;7.834;2022-07-25T09:24:26;11.00;;;5.80;;
3795;SDS011;1913;50.660;7.834;2022-07-25T09:26:54;6.80;;;6.20;;
3795;SDS011;1913;50.660;7.834;2022-07-25T09:29:26;6.93;;;6.33;;
3795;SDS011;1913;50.660;7.834;2022-07-25T09:31:54;6.30;;;5.70;;
3795;SDS011;1913;50.660;7.834;2022-07-25T09:34:31;6.73;;;5.93;;
3795;SDS011;1913;50.660;7.834;2022-07-25T09:37:00;7.47;;;6.50;;
3795;SDS011;1913;50.660;7.834;2022-07-25T09:39:35;6.57;;;5.97;;
3795;SDS011;1913;50.660;7.834;2022-07-25T09:44:40;8.30;;;6.23;;
3795;SDS011;1913;50.660;7.834;2022-07-25T09:47:10;8.60;;;6.07;;
3795;SDS011;1913;50.660;7.834;2022-07-25T09:49:40;8.23;;;6.10;;
3795;SDS011;1913;50.660;7.834;2022-07-25T09:52:07;5.70;;;5.20;;
3795;SDS011;1913;50.660;7.834;2022-07-25T09:54:34;6.93;;;6.33;;
3795;SDS011;1913;50.660;7.834;2022-07-25T09:56:59;9.03;;;5.90;;
3795;SDS011;1913;50.660;7.834;2022-07-25T09:59:25;6.70;;;6.03;;
3795;SDS011;1913;50.660;7.834;2022-07-25T10:07:37;9.07;;;6.83;;
3795;SDS011;1913;50.660;7.834;2022-07-25T10:10:07;7.80;;;6.17;;
3795;SDS011;1913;50.660;7.834;2022-07-25T10:12:36;9.30;;;5.90;;
3795;SDS011;1913;50.660;7.834;2022-07-25T10:15:10;6.93;;;5.97;;
3795;SDS011;1913;50.660;7.834;2022-07-25T10:17:38;6.30;;;5.77;;
3795;SDS011;1913;50.660;7.834;2022-07-25T10:20:06;7.13;;;6.57;;
3795;SDS011;1913;50.660;7.834;2022-07-25T10:25:11;7.70;;;6.13;;
3795;SDS011;1913;50.660;7.834;2022-07-25T10:27:45;8.47;;;6.03;;
3795;SDS011;1913;50.660;7.834;2022-07-25T10:30:21;6.73;;;6.13;;
3795;SDS011;1913;50.660;7.834;2022-07-25T10:32:55;6.77;;;6.07;;
3795;SDS011;1913;50.660;7.834;2022-07-25T10:35:23;7.10;;;5.57;;
3795;SDS011;1913;50.660;7.834;2022-07-25T10:37:53;6.90;;;6.30;;
3795;SDS011;1913;50.660;7.834;2022-07-25T10:40:40;11.53;;;6.90;;
3795;SDS011;1913;50.660;7.834;2022-07-25T10:43:10;9.50;;;6.20;;
3795;SDS011;1913;50.660;7.834;2022-07-25T10:45:50;7.27;;;6.03;;
3795;SDS011;1913;50.660;7.834;2022-07-25T10:48:30;9.30;;;6.10;;
3795;SDS011;1913;50.660;7.834;2022-07-25T10:53:30;6.90;;;6.20;;
3795;SDS011;1913;50.660;7.834;2022-07-25T10:56:01;7.13;;;6.40;;
3795;SDS011;1913;50.660;7.834;2022-07-25T10:58:42;7.80;;;6.23;;
3795;SDS011;1913;50.660;7.834;2022-07-25T11:01:09;9.43;;;6.50;;
3795;SDS011;1913;50.660;7.834;2022-07-25T11:03:34;6.63;;;5.83;;
3795;SDS011;1913;50.660;7.834;2022-07-25T11:06:00;8.93;;;6.23;;
3795;SDS011;1913;50.660;7.834;2022-07-25T11:08:31;7.40;;;6.60;;
3795;SDS011;1913;50.660;7.834;2022-07-25T11:10:57;7.87;;;6.20;;
3795;SDS011;1913;50.660;7.834;2022-07-25T11:13:24;10.90;;;7.00;;
3795;SDS011;1913;50.660;7.834;2022-07-25T11:15:56;6.93;;;5.97;;
3795;SDS011;1913;50.660;7.834;2022-07-25T11:18:30;7.67;;;6.90;;
3795;SDS011;1913;50.660;7.834;2022-07-25T11:21:00;7.03;;;6.33;;
3795;SDS011;1913;50.660;7.834;2022-07-25T11:23:26;7.80;;;7.00;;
3795;SDS011;1913;50.660;7.834;2022-07-25T11:26:02;8.03;;;6.87;;
3795;SDS011;1913;50.660;7.834;2022-07-25T11:31:04;7.77;;;6.97;;
3795;SDS011;1913;50.660;7.834;2022-07-25T11:33:29;8.20;;;7.07;;
3795;SDS011;1913;50.660;7.834;2022-07-25T11:35:55;9.93;;;7.33;;
3795;SDS011;1913;50.660;7.834;2022-07-25T11:38:23;12.70;;;7.00;;
3795;SDS011;1913;50.660;7.834;2022-07-25T11:40:51;8.60;;;7.70;;
3795;SDS011;1913;50.660;7.834;2022-07-25T11:43:22;10.10;;;7.73;;
3795;SDS011;1913;50.660;7.834;2022-07-25T11:45:55;12.50;;;7.80;;
3795;SDS011;1913;50.660;7.834;2022-07-25T11:48:28;10.33;;;7.33;;
3795;SDS011;1913;50.660;7.834;2022-07-25T11:50:56;8.33;;;7.50;;
3795;SDS011;1913;50.660;7.834;2022-07-25T11:53:37;12.40;;;7.53;;
3795;SDS011;1913;50.660;7.834;2022-07-25T11:56:13;8.90;;;6.83;;
3795;SDS011;1913;50.660;7.834;2022-07-25T11:58:42;7.87;;;7.07;;
3795;SDS011;1913;50.660;7.834;2022-07-25T12:01:12;11.83;;;7.03;;
3795;SDS011;1913;50.660;7.834;2022-07-25T12:03:39;7.97;;;7.03;;
3795;SDS011;1913;50.660;7.834;2022-07-25T12:06:09;10.20;;;7.20;;
3795;SDS011;1913;50.660;7.834;2022-07-25T12:08:39;11.37;;;7.53;;
3795;SDS011;1913;50.660;7.834;2022-07-25T12:11:19;8.30;;;6.67;;
3795;SDS011;1913;50.660;7.834;2022-07-25T12:14:00;6.93;;;5.93;;
3795;SDS011;1913;50.660;7.834;2022-07-25T12:16:32;9.27;;;6.33;;
3795;SDS011;1913;50.660;7.834;2022-07-25T12:18:57;11.17;;;5.90;;
3795;SDS011;1913;50.660;7.834;2022-07-25T12:21:23;7.20;;;5.50;;
3795;SDS011;1913;50.660;7.834;2022-07-25T12:23:49;6.80;;;5.30;;
3795;SDS011;1913;50.660;7.834;2022-07-25T12:26:14;9.07;;;6.60;;
3795;SDS011;1913;50.660;7.834;2022-07-25T12:28:39;6.30;;;5.70;;
3795;SDS011;1913;50.660;7.834;2022-07-25T12:31:05;6.90;;;6.20;;
3795;SDS011;1913;50.660;7.834;2022-07-25T12:33:31;7.40;;;5.83;;
3795;SDS011;1913;50.660;7.834;2022-07-25T12:35:58;7.23;;;5.50;;
3795;SDS011;1913;50.660;7.834;2022-07-25T12:38:33;8.50;;;6.13;;
3795;SDS011;1913;50.660;7.834;2022-07-25T12:40:58;8.63;;;5.50;;
3795;SDS011;1913;50.660;7.834;2022-07-25T12:43:24;5.83;;;5.23;;
3795;SDS011;1913;50.660;7.834;2022-07-25T12:45:51;6.23;;;5.63;;
3795;SDS011;1913;50.660;7.834;2022-07-25T12:48:16;6.10;;;5.23;;
3795;SDS011;1913;50.660;7.834;2022-07-25T12:50:42;6.93;;;5.20;;
3795;SDS011;1913;50.660;7.834;2022-07-25T12:53:09;6.13;;;5.43;;
3795;SDS011;1913;50.660;7.834;2022-07-25T12:55:34;7.43;;;5.30;;
3795;SDS011;1913;50.660;7.834;2022-07-25T12:58:00;5.27;;;4.87;;
3795;SDS011;1913;50.660;7.834;2022-07-25T13:00:30;5.00;;;4.60;;
3795;SDS011;1913;50.660;7.834;2022-07-25T13:02:55;5.33;;;4.83;;
3795;SDS011;1913;50.660;7.834;2022-07-25T13:05:21;9.53;;;4.90;;
3795;SDS011;1913;50.660;7.834;2022-07-25T13:07:48;5.37;;;4.50;;
3795;SDS011;1913;50.660;7.834;2022-07-25T13:10:14;5.17;;;4.77;;
3795;SDS011;1913;50.660;7.834;2022-07-25T13:12:41;6.47;;;4.67;;
3795;SDS011;1913;50.660;7.834;2022-07-25T13:15:06;6.00;;;4.97;;
3795;SDS011;1913;50.660;7.834;2022-07-25T13:17:33;5.23;;;4.73;;
3795;SDS011;1913;50.660;7.834;2022-07-25T13:20:03;7.10;;;4.93;;
3795;SDS011;1913;50.660;7.834;2022-07-25T13:22:31;6.20;;;5.30;;
3795;SDS011;1913;50.660;7.834;2022-07-25T13:24:57;7.80;;;4.90;;
3795;SDS011;1913;50.660;7.834;2022-07-25T13:27:22;5.83;;;5.33;;
3795;SDS011;1913;50.660;7.834;2022-07-25T13:29:48;6.53;;;5.63;;
3795;SDS011;1913;50.660;7.834;2022-07-25T13:32:22;9.13;;;5.10;;
3795;SDS011;1913;50.660;7.834;2022-07-25T13:34:48;5.77;;;5.13;;
3795;SDS011;1913;50.660;7.834;2022-07-25T13:37:14;6.93;;;5.63;;
3795;SDS011;1913;50.660;7.834;2022-07-25T13:39:39;5.83;;;5.37;;
3795;SDS011;1913;50.660;7.834;2022-07-25T13:42:08;11.60;;;5.23;;
3795;SDS011;1913;50.660;7.834;2022-07-25T13:44:40;6.50;;;5.90;;
3795;SDS011;1913;50.660;7.834;2022-07-25T13:47:05;6.87;;;5.80;;
3795;SDS011;1913;50.660;7.834;2022-07-25T13:49:31;6.60;;;5.30;;
3795;SDS011;1913;50.660;7.834;2022-07-25T13:51:56;6.13;;;5.60;;
3795;SDS011;1913;50.660;7.834;2022-07-25T13:54:22;7.80;;;5.80;;
3795;SDS011;1913;50.660;7.834;2022-07-25T13:56:47;6.20;;;5.60;;
3795;SDS011;1913;50.660;7.834;2022-07-25T13:59:19;6.00;;;5.50;;
3795;SDS011;1913;50.660;7.834;2022-07-25T14:02:00;7.13;;;5.33;;
3795;SDS011;1913;50.660;7.834;2022-07-25T14:04:39;6.13;;;5.53;;
3795;SDS011;1913;50.660;7.834;2022-07-25T14:07:05;8.07;;;5.93;;
3795;SDS011;1913;50.660;7.834;2022-07-25T14:09:35;6.23;;;5.73;;
3795;SDS011;1913;50.660;7.834;2022-07-25T14:12:02;7.13;;;5.60;;
3795;SDS011;1913;50.660;7.834;2022-07-25T14:14:28;12.40;;;7.07;;
3795;SDS011;1913;50.660;7.834;2022-07-25T14:16:54;9.83;;;8.03;;
3795;SDS011;1913;50.660;7.834;2022-07-25T14:19:20;10.47;;;7.93;;
3795;SDS011;1913;50.660;7.834;2022-07-25T14:21:45;8.97;;;7.40;;
3795;SDS011;1913;50.660;7.834;2022-07-25T14:24:11;8.97;;;7.50;;
3795;SDS011;1913;50.660;7.834;2022-07-25T14:26:37;10.43;;;6.70;;
3795;SDS011;1913;50.660;7.834;2022-07-25T14:29:05;8.30;;;7.00;;
3795;SDS011;1913;50.660;7.834;2022-07-25T14:31:36;7.83;;;6.67;;
3795;SDS011;1913;50.660;7.834;2022-07-25T14:34:06;9.80;;;6.80;;
3795;SDS011;1913;50.660;7.834;2022-07-25T14:36:33;7.23;;;6.53;;
3795;SDS011;1913;50.660;7.834;2022-07-25T14:38:58;7.20;;;5.77;;
3795;SDS011;1913;50.660;7.834;2022-07-25T14:41:26;10.40;;;6.20;;
3795;SDS011;1913;50.660;7.834;2022-07-25T14:43:52;8.67;;;6.60;;
3795;SDS011;1913;50.660;7.834;2022-07-25T14:46:17;7.83;;;6.40;;
3795;SDS011;1913;50.660;7.834;2022-07-25T14:48:46;7.87;;;6.40;;
3795;SDS011;1913;50.660;7.834;2022-07-25T14:51:13;6.57;;;5.93;;
3795;SDS011;1913;50.660;7.834;2022-07-25T14:53:45;7.67;;;6.10;;
3795;SDS011;1913;50.660;7.834;2022-07-25T14:56:13;10.07;;;6.70;;
3795;SDS011;1913;50.660;7.834;2022-07-25T14:58:39;12.10;;;7.43;;
3795;SDS011;1913;50.660;7.834;2022-07-25T15:01:05;10.40;;;6.97;;
3795;SDS011;1913;50.660;7.834;2022-07-25T15:03:30;10.27;;;7.23;;
3795;SDS011;1913;50.660;7.834;2022-07-25T15:05:56;8.90;;;7.13;;
3795;SDS011;1913;50.660;7.834;2022-07-25T15:08:21;8.73;;;6.87;;
3795;SDS011;1913;50.660;7.834;2022-07-25T15:10:48;9.13;;;7.03;;
3795;SDS011;1913;50.660;7.834;2022-07-25T15:13:18;8.73;;;7.17;;
3795;SDS011;1913;50.660;7.834;2022-07-25T15:15:54;8.63;;;7.07;;
3795;SDS011;1913;50.660;7.834;2022-07-25T15:18:37;7.60;;;6.90;;
3795;SDS011;1913;50.660;7.834;2022-07-25T15:21:08;9.67;;;6.60;;
3795;SDS011;1913;50.660;7.834;2022-07-25T15:23:36;9.00;;;6.57;;
3795;SDS011;1913;50.660;7.834;2022-07-25T15:26:02;9.20;;;7.07;;
3795;SDS011;1913;50.660;7.834;2022-07-25T15:28:29;9.97;;;6.53;;
3795;SDS011;1913;50.660;7.834;2022-07-25T15:30:56;8.87;;;5.90;;
3795;SDS011;1913;50.660;7.834;2022-07-25T15:33:22;6.80;;;6.10;;
3795;SDS011;1913;50.660;7.834;2022-07-25T15:35:47;14.60;;;5.70;;
3795;SDS011;1913;50.660;7.834;2022-07-25T15:38:13;7.83;;;5.37;;
3795;SDS011;1913;50.660;7.834;2022-07-25T15:40:46;10.03;;;5.00;;
3795;SDS011;1913;50.660;7.834;2022-07-25T15:43:23;7.67;;;4.70;;
3795;SDS011;1913;50.660;7.834;2022-07-25T15:45:50;7.87;;;4.50;;
3795;SDS011;1913;50.660;7.834;2022-07-25T15:48:16;5.90;;;3.67;;
3795;SDS011;1913;50.660;7.834;2022-07-25T15:50:42;10.30;;;4.13;;
3795;SDS011;1913;50.660;7.834;2022-07-25T15:53:10;5.20;;;3.40;;
3795;SDS011;1913;50.660;7.834;2022-07-25T15:55:36;4.40;;;3.60;;
3795;SDS011;1913;50.660;7.834;2022-07-25T15:58:03;5.07;;;3.50;;
3795;SDS011;1913;50.660;7.834;2022-07-25T16:00:28;7.00;;;3.40;;
3795;SDS011;1913;50.660;7.834;2022-07-25T16:02:55;5.23;;;2.87;;
3795;SDS011;1913;50.660;7.834;2022-07-25T16:05:25;9.60;;;4.60;;
3795;SDS011;1913;50.660;7.834;2022-07-25T16:07:52;7.07;;;3.37;;
3795;SDS011;1913;50.660;7.834;2022-07-25T16:10:17;7.63;;;3.00;;
3795;SDS011;1913;50.660;7.834;2022-07-25T16:12:45;4.37;;;3.27;;